sensor_id;sensor_type;location;lat;lon;timestamp;temperature;humidity
37786;DHT22;23625;48.784;9.336;2022-11-25T00:00:43;2.80;99.90
37786;DHT22;23625;48.784;9.336;2022-11-25T00:03:09;2.70;99.90
37786;DHT22;23625;48.784;9.336;2022-11-25T00:05:35;2.70;99.90
37786;DHT22;23625;48.784;9.336;2022-11-25T00:08:00;2.70;99.90
37786;DHT22;23625;48.784;9.336;2022-11-25T00:10:26;2.60;99.90
37786;DHT22;23625;48.784;9.336;2022-11-25T00:12:51;2.60;99.90
37786;DHT22;23625;48.784;9.336;2022-11-25T00:15:17;2.50;99.90
37786;DHT22;23625;48.784;9.336;2022-11-25T00:17:42;2.60;99.90
37786;DHT22;23625;48.784;9.336;2022-11-25T00:20:08;2.50;99.90
37786;DHT22;23625;48.784;9.336;2022-11-25T00:22:34;2.50;99.90
37786;DHT22;23625;48.784;9.336;2022-11-25T00:24:59;2.40;99.90
37786;DHT22;23625;48.784;9.336;2022-11-25T00:27:25;2.40;99.90
37786;DHT22;23625;48.784;9.336;2022-11-25T00:29:50;2.40;99.90
37786;DHT22;23625;48.784;9.336;2022-11-25T00:32:16;2.40;99.90
37786;DHT22;23625;48.784;9.336;2022-11-25T00:34:42;2.30;99.90
37786;DHT22;23625;48.784;9.336;2022-11-25T00:37:07;2.30;99.90
37786;DHT22;23625;48.784;9.336;2022-11-25T00:39:33;2.30;99.90
37786;DHT22;23625;48.784;9.336;2022-11-25T00:41:58;2.20;99.90
37786;DHT22;23625;48.784;9.336;2022-11-25T00:44:42;2.10;99.90
37786;DHT22;23625;48.784;9.336;2022-11-25T00:47:16;2.10;99.90
37786;DHT22;23625;48.784;9.336;2022-11-25T00:49:47;2.10;99.90
37786;DHT22;23625;48.784;9.336;2022-11-25T00:52:16;2.00;99.90
37786;DHT22;23625;48.784;9.336;2022-11-25T00:54:42;2.00;99.90
37786;DHT22;23625;48.784;9.336;2022-11-25T00:57:10;2.00;99.90
37786;DHT22;23625;48.784;9.336;2022-11-25T00:59:35;2.10;99.90
37786;DHT22;23625;48.784;9.336;2022-11-25T01:02:01;2.10;99.90
37786;DHT22;23625;48.784;9.336;2022-11-25T01:04:27;2.10;99.90
37786;DHT22;23625;48.784;9.336;2022-11-25T01:06:52;2.20;99.90
37786;DHT22;23625;48.784;9.336;2022-11-25T01:09:18;2.20;99.90
37786;DHT22;23625;48.784;9.336;2022-11-25T01:11:44;2.30;99.90
37786;DHT22;23625;48.784;9.336;2022-11-25T01:14:10;2.40;99.90
37786;DHT22;23625;48.784;9.336;2022-11-25T01:16:35;2.40;99.90
37786;DHT22;23625;48.784;9.336;2022-11-25T01:19:02;2.50;99.90
37786;DHT22;23625;48.784;9.336;2022-11-25T01:21:30;2.50;99.90
37786;DHT22;23625;48.784;9.336;2022-11-25T01:23:58;2.60;99.90
37786;DHT22;23625;48.784;9.336;2022-11-25T01:26:25;2.60;99.90
37786;DHT22;23625;48.784;9.336;2022-11-25T01:28:57;2.60;99.90
37786;DHT22;23625;48.784;9.336;2022-11-25T01:31:24;2.70;99.90
37786;DHT22;23625;48.784;9.336;2022-11-25T01:33:55;2.70;99.90
37786;DHT22;23625;48.784;9.336;2022-11-25T01:36:21;2.80;99.90
37786;DHT22;23625;48.784;9.336;2022-11-25T01:38:53;2.80;99.90
37786;DHT22;23625;48.784;9.336;2022-11-25T01:41:20;2.80;99.90
37786;DHT22;23625;48.784;9.336;2022-11-25T01:51:51;3.40;99.90
37786;DHT22;23625;48.784;9.336;2022-11-25T01:54:20;3.60;99.90
37786;DHT22;23625;48.784;9.336;2022-11-25T01:56:57;3.80;99.90
37786;DHT22;23625;48.784;9.336;2022-11-25T01:59:25;4.00;99.90
37786;DHT22;23625;48.784;9.336;2022-11-25T02:01:51;4.20;99.90
37786;DHT22;23625;48.784;9.336;2022-11-25T02:04:18;4.40;99.90
37786;DHT22;23625;48.784;9.336;2022-11-25T02:06:51;4.60;99.90
37786;DHT22;23625;48.784;9.336;2022-11-25T02:09:20;4.80;99.90
37786;DHT22;23625;48.784;9.336;2022-11-25T02:11:47;4.90;99.90
37786;DHT22;23625;48.784;9.336;2022-11-25T02:14:16;4.90;99.90
37786;DHT22;23625;48.784;9.336;2022-11-25T02:16:42;4.90;99.90
37786;DHT22;23625;48.784;9.336;2022-11-25T02:19:20;4.80;99.90
37786;DHT22;23625;48.784;9.336;2022-11-25T02:21:51;4.90;99.90
37786;DHT22;23625;48.784;9.336;2022-11-25T02:26:52;5.10;99.90
37786;DHT22;23625;48.784;9.336;2022-11-25T02:29:17;5.10;99.90
37786;DHT22;23625;48.784;9.336;2022-11-25T02:31:43;5.10;99.90
37786;DHT22;23625;48.784;9.336;2022-11-25T02:34:09;5.10;99.90
37786;DHT22;23625;48.784;9.336;2022-11-25T02:36:35;5.10;99.90
37786;DHT22;23625;48.784;9.336;2022-11-25T02:39:01;5.10;99.90
37786;DHT22;23625;48.784;9.336;2022-11-25T02:41:51;5.00;99.90
37786;DHT22;23625;48.784;9.336;2022-11-25T02:44:18;5.00;99.90
37786;DHT22;23625;48.784;9.336;2022-11-25T02:46:45;4.80;99.90
37786;DHT22;23625;48.784;9.336;2022-11-25T02:49:10;4.60;99.90
37786;DHT22;23625;48.784;9.336;2022-11-25T02:51:37;4.40;99.90
37786;DHT22;23625;48.784;9.336;2022-11-25T02:54:04;4.20;99.90
37786;DHT22;23625;48.784;9.336;2022-11-25T02:56:32;4.00;99.90
37786;DHT22;23625;48.784;9.336;2022-11-25T02:58:58;4.00;99.90
37786;DHT22;23625;48.784;9.336;2022-11-25T03:01:24;3.90;99.90
37786;DHT22;23625;48.784;9.336;2022-11-25T03:03:50;3.80;99.90
37786;DHT22;23625;48.784;9.336;2022-11-25T03:06:15;3.70;99.90
37786;DHT22;23625;48.784;9.336;2022-11-25T03:08:41;3.70;99.90
37786;DHT22;23625;48.784;9.336;2022-11-25T03:11:07;3.60;99.90
37786;DHT22;23625;48.784;9.336;2022-11-25T03:13:33;3.60;99.90
37786;DHT22;23625;48.784;9.336;2022-11-25T03:15:58;3.50;99.90
37786;DHT22;23625;48.784;9.336;2022-11-25T03:18:24;3.40;99.90
37786;DHT22;23625;48.784;9.336;2022-11-25T03:20:54;3.40;99.90
37786;DHT22;23625;48.784;9.336;2022-11-25T03:23:20;3.40;99.90
37786;DHT22;23625;48.784;9.336;2022-11-25T03:25:46;3.30;99.90
37786;DHT22;23625;48.784;9.336;2022-11-25T03:28:12;3.30;99.90
37786;DHT22;23625;48.784;9.336;2022-11-25T03:30:38;3.20;99.90
37786;DHT22;23625;48.784;9.336;2022-11-25T03:33:03;3.10;99.90
37786;DHT22;23625;48.784;9.336;2022-11-25T03:35:29;3.10;99.90
37786;DHT22;23625;48.784;9.336;2022-11-25T03:37:55;3.00;99.90
37786;DHT22;23625;48.784;9.336;2022-11-25T03:40:20;2.90;99.90
37786;DHT22;23625;48.784;9.336;2022-11-25T03:42:46;2.90;99.90
37786;DHT22;23625;48.784;9.336;2022-11-25T03:45:13;2.80;99.90
37786;DHT22;23625;48.784;9.336;2022-11-25T03:47:40;2.80;99.90
37786;DHT22;23625;48.784;9.336;2022-11-25T03:50:06;2.70;99.90
37786;DHT22;23625;48.784;9.336;2022-11-25T03:52:32;2.60;99.90
37786;DHT22;23625;48.784;9.336;2022-11-25T03:54:57;2.70;99.90
37786;DHT22;23625;48.784;9.336;2022-11-25T03:57:23;2.70;99.90
37786;DHT22;23625;48.784;9.336;2022-11-25T03:59:49;2.70;99.90
37786;DHT22;23625;48.784;9.336;2022-11-25T04:02:14;2.80;99.90
37786;DHT22;23625;48.784;9.336;2022-11-25T04:04:40;2.80;99.90
37786;DHT22;23625;48.784;9.336;2022-11-25T04:07:06;2.80;99.90
37786;DHT22;23625;48.784;9.336;2022-11-25T04:09:31;2.90;99.90
37786;DHT22;23625;48.784;9.336;2022-11-25T04:11:57;2.90;99.90
37786;DHT22;23625;48.784;9.336;2022-11-25T04:14:41;3.00;99.90
37786;DHT22;23625;48.784;9.336;2022-11-25T04:17:07;3.00;99.90
37786;DHT22;23625;48.784;9.336;2022-11-25T04:19:33;3.10;99.90
37786;DHT22;23625;48.784;9.336;2022-11-25T04:21:58;3.10;99.90
37786;DHT22;23625;48.784;9.336;2022-11-25T04:24:26;3.10;99.90
37786;DHT22;23625;48.784;9.336;2022-11-25T04:26:51;3.10;99.90
37786;DHT22;23625;48.784;9.336;2022-11-25T04:29:17;3.20;99.90
37786;DHT22;23625;48.784;9.336;2022-11-25T04:31:42;3.20;99.90
37786;DHT22;23625;48.784;9.336;2022-11-25T04:34:09;3.20;99.90
37786;DHT22;23625;48.784;9.336;2022-11-25T04:36:34;3.20;99.90
37786;DHT22;23625;48.784;9.336;2022-11-25T04:39:00;3.20;99.90
37786;DHT22;23625;48.784;9.336;2022-11-25T04:41:26;3.10;99.90
37786;DHT22;23625;48.784;9.336;2022-11-25T04:43:51;3.00;99.90
37786;DHT22;23625;48.784;9.336;2022-11-25T04:46:20;3.00;99.90
37786;DHT22;23625;48.784;9.336;2022-11-25T04:48:46;2.90;99.90
37786;DHT22;23625;48.784;9.336;2022-11-25T04:51:12;2.90;99.90
37786;DHT22;23625;48.784;9.336;2022-11-25T04:53:38;2.90;99.90
37786;DHT22;23625;48.784;9.336;2022-11-25T04:56:04;2.90;99.90
37786;DHT22;23625;48.784;9.336;2022-11-25T04:58:29;2.80;99.90
37786;DHT22;23625;48.784;9.336;2022-11-25T05:01:13;2.80;99.90
37786;DHT22;23625;48.784;9.336;2022-11-25T05:03:39;2.80;99.90
37786;DHT22;23625;48.784;9.336;2022-11-25T05:06:06;2.80;99.90
37786;DHT22;23625;48.784;9.336;2022-11-25T05:08:32;2.90;99.90
37786;DHT22;23625;48.784;9.336;2022-11-25T05:10:58;3.00;99.90
37786;DHT22;23625;48.784;9.336;2022-11-25T05:13:24;3.10;99.90
37786;DHT22;23625;48.784;9.336;2022-11-25T05:15:49;3.20;99.90
37786;DHT22;23625;48.784;9.336;2022-11-25T05:18:15;3.10;99.90
37786;DHT22;23625;48.784;9.336;2022-11-25T05:20:41;3.20;99.90
37786;DHT22;23625;48.784;9.336;2022-11-25T05:23:06;3.20;99.90
37786;DHT22;23625;48.784;9.336;2022-11-25T05:25:32;3.30;99.90
37786;DHT22;23625;48.784;9.336;2022-11-25T05:27:57;3.30;99.90
37786;DHT22;23625;48.784;9.336;2022-11-25T05:30:23;3.40;99.90
37786;DHT22;23625;48.784;9.336;2022-11-25T05:32:49;3.30;99.90
37786;DHT22;23625;48.784;9.336;2022-11-25T05:35:15;3.30;99.90
37786;DHT22;23625;48.784;9.336;2022-11-25T05:37:40;3.30;99.90
37786;DHT22;23625;48.784;9.336;2022-11-25T05:40:06;3.40;99.90
37786;DHT22;23625;48.784;9.336;2022-11-25T05:42:32;3.50;99.90
37786;DHT22;23625;48.784;9.336;2022-11-25T05:44:58;3.60;99.90
37786;DHT22;23625;48.784;9.336;2022-11-25T05:47:23;3.50;99.90
37786;DHT22;23625;48.784;9.336;2022-11-25T05:49:49;3.40;99.90
37786;DHT22;23625;48.784;9.336;2022-11-25T05:52:14;3.30;99.90
37786;DHT22;23625;48.784;9.336;2022-11-25T05:54:40;3.10;99.90
37786;DHT22;23625;48.784;9.336;2022-11-25T05:57:05;3.10;99.90
37786;DHT22;23625;48.784;9.336;2022-11-25T05:59:31;2.90;99.90
37786;DHT22;23625;48.784;9.336;2022-11-25T06:01:56;2.80;99.90
37786;DHT22;23625;48.784;9.336;2022-11-25T06:04:22;2.70;99.90
37786;DHT22;23625;48.784;9.336;2022-11-25T06:06:48;2.60;99.90
37786;DHT22;23625;48.784;9.336;2022-11-25T06:09:13;2.60;99.90
37786;DHT22;23625;48.784;9.336;2022-11-25T06:11:39;2.50;99.90
37786;DHT22;23625;48.784;9.336;2022-11-25T06:14:04;2.50;99.90
37786;DHT22;23625;48.784;9.336;2022-11-25T06:16:30;2.40;99.90
37786;DHT22;23625;48.784;9.336;2022-11-25T06:18:56;2.40;99.90
37786;DHT22;23625;48.784;9.336;2022-11-25T06:21:21;2.30;99.90
37786;DHT22;23625;48.784;9.336;2022-11-25T06:23:47;2.20;99.90
37786;DHT22;23625;48.784;9.336;2022-11-25T06:26:18;2.10;99.90
37786;DHT22;23625;48.784;9.336;2022-11-25T06:28:44;2.10;99.90
37786;DHT22;23625;48.784;9.336;2022-11-25T06:31:16;2.00;99.90
37786;DHT22;23625;48.784;9.336;2022-11-25T06:33:45;2.00;99.90
37786;DHT22;23625;48.784;9.336;2022-11-25T06:36:11;2.00;99.90
37786;DHT22;23625;48.784;9.336;2022-11-25T06:38:47;1.90;99.90
37786;DHT22;23625;48.784;9.336;2022-11-25T06:41:13;1.90;99.90
37786;DHT22;23625;48.784;9.336;2022-11-25T06:43:39;1.90;99.90
37786;DHT22;23625;48.784;9.336;2022-11-25T06:46:07;1.90;99.90
37786;DHT22;23625;48.784;9.336;2022-11-25T06:48:33;1.80;99.90
37786;DHT22;23625;48.784;9.336;2022-11-25T06:51:00;1.80;99.90
37786;DHT22;23625;48.784;9.336;2022-11-25T06:53:27;1.80;99.90
37786;DHT22;23625;48.784;9.336;2022-11-25T06:56:10;1.80;99.90
37786;DHT22;23625;48.784;9.336;2022-11-25T06:58:36;1.70;99.90
37786;DHT22;23625;48.784;9.336;2022-11-25T07:01:07;1.70;99.90
37786;DHT22;23625;48.784;9.336;2022-11-25T07:03:35;1.70;99.90
37786;DHT22;23625;48.784;9.336;2022-11-25T07:06:01;1.70;99.90
37786;DHT22;23625;48.784;9.336;2022-11-25T07:08:27;1.70;99.90
37786;DHT22;23625;48.784;9.336;2022-11-25T07:10:53;1.70;99.90
37786;DHT22;23625;48.784;9.336;2022-11-25T07:13:20;1.70;99.90
37786;DHT22;23625;48.784;9.336;2022-11-25T07:15:46;1.70;99.90
37786;DHT22;23625;48.784;9.336;2022-11-25T07:18:11;1.70;99.90
37786;DHT22;23625;48.784;9.336;2022-11-25T07:20:37;1.70;99.90
37786;DHT22;23625;48.784;9.336;2022-11-25T07:23:03;1.70;99.90
37786;DHT22;23625;48.784;9.336;2022-11-25T07:25:30;1.80;99.90
37786;DHT22;23625;48.784;9.336;2022-11-25T07:27:56;1.80;99.90
37786;DHT22;23625;48.784;9.336;2022-11-25T07:30:22;1.80;99.90
37786;DHT22;23625;48.784;9.336;2022-11-25T07:32:47;1.90;99.90
37786;DHT22;23625;48.784;9.336;2022-11-25T07:35:13;2.00;99.90
37786;DHT22;23625;48.784;9.336;2022-11-25T07:37:38;2.00;99.90
37786;DHT22;23625;48.784;9.336;2022-11-25T07:40:05;2.10;99.90
37786;DHT22;23625;48.784;9.336;2022-11-25T07:42:30;2.20;99.90
37786;DHT22;23625;48.784;9.336;2022-11-25T07:44:57;2.20;99.90
37786;DHT22;23625;48.784;9.336;2022-11-25T07:47:23;2.30;99.90
37786;DHT22;23625;48.784;9.336;2022-11-25T07:49:49;2.40;99.90
37786;DHT22;23625;48.784;9.336;2022-11-25T07:52:15;2.60;99.90
37786;DHT22;23625;48.784;9.336;2022-11-25T07:54:41;2.70;99.90
37786;DHT22;23625;48.784;9.336;2022-11-25T07:57:06;2.90;99.90
37786;DHT22;23625;48.784;9.336;2022-11-25T07:59:32;3.20;99.90
37786;DHT22;23625;48.784;9.336;2022-11-25T08:01:57;3.30;99.90
37786;DHT22;23625;48.784;9.336;2022-11-25T08:04:23;3.50;99.90
37786;DHT22;23625;48.784;9.336;2022-11-25T08:06:51;3.60;99.90
37786;DHT22;23625;48.784;9.336;2022-11-25T08:09:20;3.60;99.90
37786;DHT22;23625;48.784;9.336;2022-11-25T08:11:47;3.70;99.90
37786;DHT22;23625;48.784;9.336;2022-11-25T08:14:13;3.70;99.90
37786;DHT22;23625;48.784;9.336;2022-11-25T08:16:39;3.70;99.90
37786;DHT22;23625;48.784;9.336;2022-11-25T08:19:08;3.80;99.90
37786;DHT22;23625;48.784;9.336;2022-11-25T08:21:36;4.00;99.90
37786;DHT22;23625;48.784;9.336;2022-11-25T08:24:01;4.20;99.90
37786;DHT22;23625;48.784;9.336;2022-11-25T08:26:32;4.50;99.90
37786;DHT22;23625;48.784;9.336;2022-11-25T08:29:01;4.80;99.90
37786;DHT22;23625;48.784;9.336;2022-11-25T08:31:30;5.10;99.90
37786;DHT22;23625;48.784;9.336;2022-11-25T08:33:57;5.40;99.90
37786;DHT22;23625;48.784;9.336;2022-11-25T08:36:23;5.50;99.90
37786;DHT22;23625;48.784;9.336;2022-11-25T08:38:51;5.80;99.90
37786;DHT22;23625;48.784;9.336;2022-11-25T08:41:22;5.90;99.90
37786;DHT22;23625;48.784;9.336;2022-11-25T08:43:49;6.00;99.90
37786;DHT22;23625;48.784;9.336;2022-11-25T08:46:17;6.10;99.90
37786;DHT22;23625;48.784;9.336;2022-11-25T08:48:44;6.20;99.90
37786;DHT22;23625;48.784;9.336;2022-11-25T08:51:13;6.20;99.90
37786;DHT22;23625;48.784;9.336;2022-11-25T08:53:40;6.20;99.90
37786;DHT22;23625;48.784;9.336;2022-11-25T08:56:06;6.30;99.90
37786;DHT22;23625;48.784;9.336;2022-11-25T08:58:33;6.30;99.90
37786;DHT22;23625;48.784;9.336;2022-11-25T09:00:59;6.30;99.90
37786;DHT22;23625;48.784;9.336;2022-11-25T09:03:26;6.40;99.90
37786;DHT22;23625;48.784;9.336;2022-11-25T09:05:52;6.50;99.90
37786;DHT22;23625;48.784;9.336;2022-11-25T09:08:19;6.50;99.90
37786;DHT22;23625;48.784;9.336;2022-11-25T09:10:45;6.60;99.90
37786;DHT22;23625;48.784;9.336;2022-11-25T09:13:11;6.60;99.90
37786;DHT22;23625;48.784;9.336;2022-11-25T09:15:37;6.70;99.90
37786;DHT22;23625;48.784;9.336;2022-11-25T09:18:07;6.70;99.90
37786;DHT22;23625;48.784;9.336;2022-11-25T09:20:33;6.80;99.90
37786;DHT22;23625;48.784;9.336;2022-11-25T09:23:00;6.90;99.90
37786;DHT22;23625;48.784;9.336;2022-11-25T09:25:27;7.00;99.90
37786;DHT22;23625;48.784;9.336;2022-11-25T09:27:54;7.20;99.90
37786;DHT22;23625;48.784;9.336;2022-11-25T09:30:20;7.30;99.90
37786;DHT22;23625;48.784;9.336;2022-11-25T09:32:48;7.50;99.90
37786;DHT22;23625;48.784;9.336;2022-11-25T09:35:15;7.60;99.90
37786;DHT22;23625;48.784;9.336;2022-11-25T09:37:40;7.60;99.90
37786;DHT22;23625;48.784;9.336;2022-11-25T09:40:09;7.70;99.90
37786;DHT22;23625;48.784;9.336;2022-11-25T09:45:42;7.80;99.90
37786;DHT22;23625;48.784;9.336;2022-11-25T09:51:22;8.00;99.90
37786;DHT22;23625;48.784;9.336;2022-11-25T09:53:53;8.10;99.90
37786;DHT22;23625;48.784;9.336;2022-11-25T09:56:33;8.10;99.90
37786;DHT22;23625;48.784;9.336;2022-11-25T09:59:09;8.10;99.90
37786;DHT22;23625;48.784;9.336;2022-11-25T10:04:31;8.20;99.90
37786;DHT22;23625;48.784;9.336;2022-11-25T10:07:01;8.20;99.90
37786;DHT22;23625;48.784;9.336;2022-11-25T10:09:30;8.20;99.90
37786;DHT22;23625;48.784;9.336;2022-11-25T10:12:02;8.10;99.90
37786;DHT22;23625;48.784;9.336;2022-11-25T10:14:50;8.20;99.90
37786;DHT22;23625;48.784;9.336;2022-11-25T10:17:34;8.20;99.90
37786;DHT22;23625;48.784;9.336;2022-11-25T10:20:13;8.20;99.90
37786;DHT22;23625;48.784;9.336;2022-11-25T10:22:46;8.30;99.90
37786;DHT22;23625;48.784;9.336;2022-11-25T10:27:55;8.30;99.90
37786;DHT22;23625;48.784;9.336;2022-11-25T10:33:20;8.30;99.90
37786;DHT22;23625;48.784;9.336;2022-11-25T10:35:51;8.20;99.90
37786;DHT22;23625;48.784;9.336;2022-11-25T10:38:26;8.30;99.90
37786;DHT22;23625;48.784;9.336;2022-11-25T10:40:54;8.20;99.90
37786;DHT22;23625;48.784;9.336;2022-11-25T10:43:20;8.30;99.90
37786;DHT22;23625;48.784;9.336;2022-11-25T10:46:14;8.20;99.90
37786;DHT22;23625;48.784;9.336;2022-11-25T10:51:46;8.30;99.90
37786;DHT22;23625;48.784;9.336;2022-11-25T10:54:15;8.30;99.90
37786;DHT22;23625;48.784;9.336;2022-11-25T11:02:20;8.30;99.90
37786;DHT22;23625;48.784;9.336;2022-11-25T11:05:00;8.40;99.90
37786;DHT22;23625;48.784;9.336;2022-11-25T11:07:33;8.30;99.90
37786;DHT22;23625;48.784;9.336;2022-11-25T11:10:21;8.40;99.90
37786;DHT22;23625;48.784;9.336;2022-11-25T11:12:58;8.30;99.90
37786;DHT22;23625;48.784;9.336;2022-11-25T11:15:28;8.40;99.90
37786;DHT22;23625;48.784;9.336;2022-11-25T11:17:55;8.40;99.90
37786;DHT22;23625;48.784;9.336;2022-11-25T11:20:30;8.50;99.90
37786;DHT22;23625;48.784;9.336;2022-11-25T11:23:01;8.50;99.90
37786;DHT22;23625;48.784;9.336;2022-11-25T11:25:32;8.50;99.90
37786;DHT22;23625;48.784;9.336;2022-11-25T11:27:59;8.50;99.90
37786;DHT22;23625;48.784;9.336;2022-11-25T11:30:28;8.50;99.90
37786;DHT22;23625;48.784;9.336;2022-11-25T11:35:40;8.60;99.90
37786;DHT22;23625;48.784;9.336;2022-11-25T11:38:33;8.60;99.90
37786;DHT22;23625;48.784;9.336;2022-11-25T11:43:54;8.60;99.90
37786;DHT22;23625;48.784;9.336;2022-11-25T11:55:38;8.90;99.90
37786;DHT22;23625;48.784;9.336;2022-11-25T12:03:23;8.70;99.90
37786;DHT22;23625;48.784;9.336;2022-11-25T12:05:50;8.60;99.90
37786;DHT22;23625;48.784;9.336;2022-11-25T12:08:29;8.60;99.90
37786;DHT22;23625;48.784;9.336;2022-11-25T12:11:11;8.60;99.90
37786;DHT22;23625;48.784;9.336;2022-11-25T12:14:10;8.60;99.90
37786;DHT22;23625;48.784;9.336;2022-11-25T12:16:43;8.60;99.90
37786;DHT22;23625;48.784;9.336;2022-11-25T12:22:29;8.60;99.90
37786;DHT22;23625;48.784;9.336;2022-11-25T12:25:18;8.60;99.90
37786;DHT22;23625;48.784;9.336;2022-11-25T12:27:56;8.60;99.90
37786;DHT22;23625;48.784;9.336;2022-11-25T12:30:30;8.60;99.90
37786;DHT22;23625;48.784;9.336;2022-11-25T12:33:13;8.50;99.90
37786;DHT22;23625;48.784;9.336;2022-11-25T12:38:20;8.50;99.90
37786;DHT22;23625;48.784;9.336;2022-11-25T12:44:02;8.50;99.90
37786;DHT22;23625;48.784;9.336;2022-11-25T12:48:47;8.50;99.90
37786;DHT22;23625;48.784;9.336;2022-11-25T12:54:35;8.60;99.90
37786;DHT22;23625;48.784;9.336;2022-11-25T13:11:07;8.50;99.90
37786;DHT22;23625;48.784;9.336;2022-11-25T13:14:07;8.50;99.90
37786;DHT22;23625;48.784;9.336;2022-11-25T13:16:38;8.40;99.90
37786;DHT22;23625;48.784;9.336;2022-11-25T13:19:08;8.10;99.90
37786;DHT22;23625;48.784;9.336;2022-11-25T13:22:03;8.30;99.90
37786;DHT22;23625;48.784;9.336;2022-11-25T13:26:57;8.30;99.90
37786;DHT22;23625;48.784;9.336;2022-11-25T13:31:55;8.20;99.90
37786;DHT22;23625;48.784;9.336;2022-11-25T13:34:30;8.20;99.90
37786;DHT22;23625;48.784;9.336;2022-11-25T13:36:58;8.20;99.90
37786;DHT22;23625;48.784;9.336;2022-11-25T13:39:35;8.20;99.90
37786;DHT22;23625;48.784;9.336;2022-11-25T13:44:32;8.10;99.90
37786;DHT22;23625;48.784;9.336;2022-11-25T13:47:31;8.20;99.90
37786;DHT22;23625;48.784;9.336;2022-11-25T13:50:05;8.20;99.90
37786;DHT22;23625;48.784;9.336;2022-11-25T13:52:39;8.20;99.90
37786;DHT22;23625;48.784;9.336;2022-11-25T13:58:04;8.20;99.90
37786;DHT22;23625;48.784;9.336;2022-11-25T14:22:59;8.50;99.90
37786;DHT22;23625;48.784;9.336;2022-11-25T14:25:31;8.50;99.90
37786;DHT22;23625;48.784;9.336;2022-11-25T14:28:08;8.50;99.90
37786;DHT22;23625;48.784;9.336;2022-11-25T14:30:43;8.50;99.90
37786;DHT22;23625;48.784;9.336;2022-11-25T14:33:14;8.60;99.90
37786;DHT22;23625;48.784;9.336;2022-11-25T14:35:50;8.60;99.90
37786;DHT22;23625;48.784;9.336;2022-11-25T14:38:27;8.60;99.90
37786;DHT22;23625;48.784;9.336;2022-11-25T14:43:21;8.70;99.90
37786;DHT22;23625;48.784;9.336;2022-11-25T14:46:15;8.80;99.90
37786;DHT22;23625;48.784;9.336;2022-11-25T14:48:42;8.80;99.90
37786;DHT22;23625;48.784;9.336;2022-11-25T14:51:09;8.80;99.90
37786;DHT22;23625;48.784;9.336;2022-11-25T14:53:43;8.80;99.90
37786;DHT22;23625;48.784;9.336;2022-11-25T14:56:10;8.80;99.90
37786;DHT22;23625;48.784;9.336;2022-11-25T14:58:41;8.80;99.90
37786;DHT22;23625;48.784;9.336;2022-11-25T15:01:16;8.80;99.90
37786;DHT22;23625;48.784;9.336;2022-11-25T15:03:45;8.80;99.90
37786;DHT22;23625;48.784;9.336;2022-11-25T15:06:13;8.80;99.90
37786;DHT22;23625;48.784;9.336;2022-11-25T15:08:45;8.80;99.90
37786;DHT22;23625;48.784;9.336;2022-11-25T15:11:19;8.80;99.90
37786;DHT22;23625;48.784;9.336;2022-11-25T15:13:48;8.70;99.90
37786;DHT22;23625;48.784;9.336;2022-11-25T15:16:20;8.80;99.90
37786;DHT22;23625;48.784;9.336;2022-11-25T15:18:48;8.70;99.90
37786;DHT22;23625;48.784;9.336;2022-11-25T15:21:16;8.80;99.90
37786;DHT22;23625;48.784;9.336;2022-11-25T15:23:43;8.80;99.90
37786;DHT22;23625;48.784;9.336;2022-11-25T15:26:25;8.80;99.90
37786;DHT22;23625;48.784;9.336;2022-11-25T15:28:55;8.80;99.90
37786;DHT22;23625;48.784;9.336;2022-11-25T15:31:25;8.80;99.90
37786;DHT22;23625;48.784;9.336;2022-11-25T15:33:55;8.80;99.90
37786;DHT22;23625;48.784;9.336;2022-11-25T15:36:22;8.90;99.90
37786;DHT22;23625;48.784;9.336;2022-11-25T15:38:49;8.80;99.90
37786;DHT22;23625;48.784;9.336;2022-11-25T15:43:52;8.80;99.90
37786;DHT22;23625;48.784;9.336;2022-11-25T15:46:19;8.80;99.90
37786;DHT22;23625;48.784;9.336;2022-11-25T15:48:47;8.80;99.90
37786;DHT22;23625;48.784;9.336;2022-11-25T15:54:04;8.80;99.90
37786;DHT22;23625;48.784;9.336;2022-11-25T15:56:32;8.80;99.90
37786;DHT22;23625;48.784;9.336;2022-11-25T15:58:59;8.70;99.90
37786;DHT22;23625;48.784;9.336;2022-11-25T16:01:27;8.70;99.90
37786;DHT22;23625;48.784;9.336;2022-11-25T16:04:09;8.70;99.90
37786;DHT22;23625;48.784;9.336;2022-11-25T16:06:35;8.60;99.90
37786;DHT22;23625;48.784;9.336;2022-11-25T16:09:02;8.60;99.90
37786;DHT22;23625;48.784;9.336;2022-11-25T16:11:29;8.60;99.90
37786;DHT22;23625;48.784;9.336;2022-11-25T16:16:49;8.40;99.90
37786;DHT22;23625;48.784;9.336;2022-11-25T16:19:17;8.50;99.90
37786;DHT22;23625;48.784;9.336;2022-11-25T16:22:11;8.40;99.90
37786;DHT22;23625;48.784;9.336;2022-11-25T16:24:45;8.30;99.90
37786;DHT22;23625;48.784;9.336;2022-11-25T16:27:25;8.20;99.90
37786;DHT22;23625;48.784;9.336;2022-11-25T16:29:57;8.10;99.90
37786;DHT22;23625;48.784;9.336;2022-11-25T16:32:33;8.10;99.90
37786;DHT22;23625;48.784;9.336;2022-11-25T16:35:17;8.00;99.90
37786;DHT22;23625;48.784;9.336;2022-11-25T16:37:43;8.00;99.90
37786;DHT22;23625;48.784;9.336;2022-11-25T16:40:13;8.10;99.90
37786;DHT22;23625;48.784;9.336;2022-11-25T16:42:39;8.00;99.90
37786;DHT22;23625;48.784;9.336;2022-11-25T16:45:20;8.00;99.90
37786;DHT22;23625;48.784;9.336;2022-11-25T16:47:46;8.00;99.90
37786;DHT22;23625;48.784;9.336;2022-11-25T16:50:13;7.90;99.90
37786;DHT22;23625;48.784;9.336;2022-11-25T16:52:39;7.90;99.90
37786;DHT22;23625;48.784;9.336;2022-11-25T16:55:05;7.90;99.90
37786;DHT22;23625;48.784;9.336;2022-11-25T16:57:31;7.90;99.90
37786;DHT22;23625;48.784;9.336;2022-11-25T16:59:58;7.90;99.90
37786;DHT22;23625;48.784;9.336;2022-11-25T17:02:26;7.80;99.90
37786;DHT22;23625;48.784;9.336;2022-11-25T17:04:52;7.70;99.90
37786;DHT22;23625;48.784;9.336;2022-11-25T17:07:18;7.70;99.90
37786;DHT22;23625;48.784;9.336;2022-11-25T17:09:44;7.60;99.90
37786;DHT22;23625;48.784;9.336;2022-11-25T17:12:21;7.50;99.90
37786;DHT22;23625;48.784;9.336;2022-11-25T17:14:48;7.50;99.90
37786;DHT22;23625;48.784;9.336;2022-11-25T17:17:22;7.50;99.90
37786;DHT22;23625;48.784;9.336;2022-11-25T17:19:48;7.60;99.90
37786;DHT22;23625;48.784;9.336;2022-11-25T17:22:17;7.50;99.90
37786;DHT22;23625;48.784;9.336;2022-11-25T17:24:43;7.50;99.90
37786;DHT22;23625;48.784;9.336;2022-11-25T17:27:16;7.50;99.90
37786;DHT22;23625;48.784;9.336;2022-11-25T17:29:43;7.40;99.90
37786;DHT22;23625;48.784;9.336;2022-11-25T17:32:11;7.40;99.90
37786;DHT22;23625;48.784;9.336;2022-11-25T17:34:37;7.40;99.90
37786;DHT22;23625;48.784;9.336;2022-11-25T17:37:13;7.40;99.90
37786;DHT22;23625;48.784;9.336;2022-11-25T17:39:39;7.40;99.90
37786;DHT22;23625;48.784;9.336;2022-11-25T17:42:05;7.40;99.90
37786;DHT22;23625;48.784;9.336;2022-11-25T17:44:31;7.40;99.90
37786;DHT22;23625;48.784;9.336;2022-11-25T17:46:57;7.50;99.90
37786;DHT22;23625;48.784;9.336;2022-11-25T17:49:23;7.40;99.90
37786;DHT22;23625;48.784;9.336;2022-11-25T17:51:49;7.40;99.90
37786;DHT22;23625;48.784;9.336;2022-11-25T17:54:15;7.50;99.90
37786;DHT22;23625;48.784;9.336;2022-11-25T17:56:43;7.50;99.90
37786;DHT22;23625;48.784;9.336;2022-11-25T17:59:14;7.40;99.90
37786;DHT22;23625;48.784;9.336;2022-11-25T18:01:40;7.50;99.90